sensor_id;sensor_type;location;lat;lon;timestamp;pressure;altitude;pressure_sealevel;temperature;humidity
2178;BME280;1095;50.992;6.798;2023-02-28T00:01:52;102184.75;;;-0.47;80.53
2178;BME280;1095;50.992;6.798;2023-02-28T00:04:30;102174.09;;;-0.61;80.82
2178;BME280;1095;50.992;6.798;2023-02-28T00:06:58;102186.75;;;-0.55;81.19
2178;BME280;1095;50.992;6.798;2023-02-28T00:09:25;102185.81;;;-0.52;81.26
2178;BME280;1095;50.992;6.798;2023-02-28T00:11:51;102178.06;;;-0.51;81.27
2178;BME280;1095;50.992;6.798;2023-02-28T00:14:18;102173.84;;;-0.53;80.90
2178;BME280;1095;50.992;6.798;2023-02-28T00:16:45;102179.00;;;-0.53;80.75
2178;BME280;1095;50.992;6.798;2023-02-28T00:19:12;102180.81;;;-0.57;80.83
2178;BME280;1095;50.992;6.798;2023-02-28T00:21:40;102189.66;;;-0.65;81.46
2178;BME280;1095;50.992;6.798;2023-02-28T00:24:08;102182.03;;;-0.69;81.59
2178;BME280;1095;50.992;6.798;2023-02-28T00:26:35;102190.72;;;-0.73;81.38
2178;BME280;1095;50.992;6.798;2023-02-28T00:29:02;102169.25;;;-0.72;81.86
2178;BME280;1095;50.992;6.798;2023-02-28T00:31:28;102181.38;;;-0.75;81.89
2178;BME280;1095;50.992;6.798;2023-02-28T00:33:55;102189.88;;;-0.73;82.14
2178;BME280;1095;50.992;6.798;2023-02-28T00:36:22;102199.50;;;-0.80;82.10
2178;BME280;1095;50.992;6.798;2023-02-28T00:38:50;102194.47;;;-0.84;81.81
2178;BME280;1095;50.992;6.798;2023-02-28T00:41:17;102185.28;;;-0.91;82.25
2178;BME280;1095;50.992;6.798;2023-02-28T00:43:43;102179.44;;;-0.96;82.40
2178;BME280;1095;50.992;6.798;2023-02-28T00:46:10;102188.75;;;-0.94;83.14
2178;BME280;1095;50.992;6.798;2023-02-28T00:48:37;102187.78;;;-0.90;82.77
2178;BME280;1095;50.992;6.798;2023-02-28T00:51:04;102188.03;;;-0.97;83.02
2178;BME280;1095;50.992;6.798;2023-02-28T00:53:31;102186.16;;;-0.92;83.35
2178;BME280;1095;50.992;6.798;2023-02-28T00:56:02;102188.22;;;-1.04;82.99
2178;BME280;1095;50.992;6.798;2023-02-28T00:58:29;102198.19;;;-0.94;83.75
2178;BME280;1095;50.992;6.798;2023-02-28T01:00:56;102193.31;;;-1.02;83.83
2178;BME280;1095;50.992;6.798;2023-02-28T01:03:22;102198.66;;;-1.10;83.45
2178;BME280;1095;50.992;6.798;2023-02-28T01:05:50;102189.47;;;-1.18;84.09
2178;BME280;1095;50.992;6.798;2023-02-28T01:08:18;102183.41;;;-1.16;84.14
2178;BME280;1095;50.992;6.798;2023-02-28T01:10:45;102189.97;;;-1.06;84.49
2178;BME280;1095;50.992;6.798;2023-02-28T01:13:13;102183.41;;;-1.16;84.22
2178;BME280;1095;50.992;6.798;2023-02-28T01:15:43;102184.97;;;-1.10;84.10
2178;BME280;1095;50.992;6.798;2023-02-28T01:18:10;102183.13;;;-1.05;84.01
2178;BME280;1095;50.992;6.798;2023-02-28T01:20:36;102185.72;;;-1.07;84.22
2178;BME280;1095;50.992;6.798;2023-02-28T01:23:03;102186.53;;;-1.05;83.84
2178;BME280;1095;50.992;6.798;2023-02-28T01:25:30;102191.75;;;-1.08;84.37
2178;BME280;1095;50.992;6.798;2023-02-28T01:27:56;102187.41;;;-1.06;84.33
2178;BME280;1095;50.992;6.798;2023-02-28T01:30:24;102191.75;;;-1.08;84.54
2178;BME280;1095;50.992;6.798;2023-02-28T01:32:51;102189.97;;;-1.06;84.38
2178;BME280;1095;50.992;6.798;2023-02-28T01:35:24;102188.09;;;-0.99;84.10
2178;BME280;1095;50.992;6.798;2023-02-28T01:37:51;102190.41;;;-0.91;84.17
2178;BME280;1095;50.992;6.798;2023-02-28T01:40:18;102179.09;;;-0.86;83.62
2178;BME280;1095;50.992;6.798;2023-02-28T01:42:44;102175.28;;;-0.73;83.29
2178;BME280;1095;50.992;6.798;2023-02-28T01:45:22;102172.53;;;-0.67;82.84
2178;BME280;1095;50.992;6.798;2023-02-28T01:47:54;102172.31;;;-0.59;82.79
2178;BME280;1095;50.992;6.798;2023-02-28T01:50:24;102161.13;;;-0.58;82.22
2178;BME280;1095;50.992;6.798;2023-02-28T01:52:54;102162.81;;;-0.57;82.00
2178;BME280;1095;50.992;6.798;2023-02-28T01:55:23;102160.59;;;-0.41;81.29
2178;BME280;1095;50.992;6.798;2023-02-28T01:57:56;102159.13;;;-0.48;81.05
2178;BME280;1095;50.992;6.798;2023-02-28T02:00:24;102155.91;;;-0.55;81.49
2178;BME280;1095;50.992;6.798;2023-02-28T02:02:56;102156.84;;;-0.57;80.92
2178;BME280;1095;50.992;6.798;2023-02-28T02:05:25;102152.78;;;-0.64;81.54
2178;BME280;1095;50.992;6.798;2023-02-28T02:07:54;102160.00;;;-0.77;81.79
2178;BME280;1095;50.992;6.798;2023-02-28T02:10:25;102143.78;;;-0.79;81.48
2178;BME280;1095;50.992;6.798;2023-02-28T02:13:03;102150.44;;;-0.72;81.65
2178;BME280;1095;50.992;6.798;2023-02-28T02:15:35;102149.06;;;-0.84;82.00
2178;BME280;1095;50.992;6.798;2023-02-28T02:18:12;102144.59;;;-0.77;81.97
2178;BME280;1095;50.992;6.798;2023-02-28T02:21:11;102151.50;;;-0.79;82.10
2178;BME280;1095;50.992;6.798;2023-02-28T02:24:03;102126.59;;;-0.77;81.62
2178;BME280;1095;50.992;6.798;2023-02-28T02:26:55;102142.94;;;-0.80;81.61
2178;BME280;1095;50.992;6.798;2023-02-28T02:33:02;102138.22;;;-0.93;81.57
2178;BME280;1095;50.992;6.798;2023-02-28T02:35:34;102141.88;;;-1.01;82.27
2178;BME280;1095;50.992;6.798;2023-02-28T02:38:09;102133.72;;;-1.15;82.19
2178;BME280;1095;50.992;6.798;2023-02-28T02:40:43;102127.13;;;-1.23;82.70
2178;BME280;1095;50.992;6.798;2023-02-28T02:43:16;102133.44;;;-1.35;82.63
2178;BME280;1095;50.992;6.798;2023-02-28T02:45:46;102137.09;;;-1.42;82.92
2178;BME280;1095;50.992;6.798;2023-02-28T02:48:18;102138.56;;;-1.35;83.66
2178;BME280;1095;50.992;6.798;2023-02-28T02:50:54;102147.13;;;-1.35;83.25
2178;BME280;1095;50.992;6.798;2023-02-28T02:53:27;102146.44;;;-1.41;83.62
2178;BME280;1095;50.992;6.798;2023-02-28T02:55:56;102138.75;;;-1.41;83.61
2178;BME280;1095;50.992;6.798;2023-02-28T02:58:27;102137.88;;;-1.40;83.48
2178;BME280;1095;50.992;6.798;2023-02-28T03:00:57;102129.47;;;-1.45;82.73
2178;BME280;1095;50.992;6.798;2023-02-28T03:03:26;102139.00;;;-1.49;83.04
2178;BME280;1095;50.992;6.798;2023-02-28T03:05:59;102130.41;;;-1.48;82.32
2178;BME280;1095;50.992;6.798;2023-02-28T03:08:27;102124.25;;;-1.42;82.21
2178;BME280;1095;50.992;6.798;2023-02-28T03:10:56;102126.06;;;-1.46;82.05
2178;BME280;1095;50.992;6.798;2023-02-28T03:13:37;102124.25;;;-1.42;81.61
2178;BME280;1095;50.992;6.798;2023-02-28T03:16:35;102117.31;;;-1.40;81.62
2178;BME280;1095;50.992;6.798;2023-02-28T03:19:50;102126.28;;;-1.53;81.74
2178;BME280;1095;50.992;6.798;2023-02-28T03:44:32;102140.72;;;-1.82;83.49
2178;BME280;1095;50.992;6.798;2023-02-28T03:47:50;102117.25;;;-1.99;84.32
2178;BME280;1095;50.992;6.798;2023-02-28T03:54:03;102140.72;;;-1.82;85.08
2178;BME280;1095;50.992;6.798;2023-02-28T04:07:06;102157.16;;;-1.89;86.60
2178;BME280;1095;50.992;6.798;2023-02-28T04:09:50;102143.81;;;-2.02;86.36
2178;BME280;1095;50.992;6.798;2023-02-28T04:13:58;102155.72;;;-1.99;87.45
2178;BME280;1095;50.992;6.798;2023-02-28T04:16:41;102140.00;;;-2.21;87.59
2178;BME280;1095;50.992;6.798;2023-02-28T04:23:08;102163.16;;;-2.24;88.11
2178;BME280;1095;50.992;6.798;2023-02-28T04:25:54;102148.28;;;-2.44;88.80
2178;BME280;1095;50.992;6.798;2023-02-28T04:28:22;102164.13;;;-2.28;89.51
2178;BME280;1095;50.992;6.798;2023-02-28T04:31:00;102144.81;;;-2.41;89.91
2178;BME280;1095;50.992;6.798;2023-02-28T04:33:31;102154.94;;;-2.37;90.24
2178;BME280;1095;50.992;6.798;2023-02-28T04:36:21;102142.06;;;-2.35;89.68
2178;BME280;1095;50.992;6.798;2023-02-28T04:38:55;102167.09;;;-2.09;90.48
2178;BME280;1095;50.992;6.798;2023-02-28T04:41:30;102172.38;;;-2.15;90.15
2178;BME280;1095;50.992;6.798;2023-02-28T04:43:58;102169.84;;;-2.17;90.39
2178;BME280;1095;50.992;6.798;2023-02-28T04:46:24;102169.91;;;-2.20;90.78
2178;BME280;1095;50.992;6.798;2023-02-28T04:48:51;102181.00;;;-2.19;90.29
2178;BME280;1095;50.992;6.798;2023-02-28T04:51:19;102175.03;;;-2.20;90.33
2178;BME280;1095;50.992;6.798;2023-02-28T04:53:46;102169.13;;;-2.23;90.61
2178;BME280;1095;50.992;6.798;2023-02-28T04:56:15;102165.97;;;-2.35;90.89
2178;BME280;1095;50.992;6.798;2023-02-28T04:58:42;102177.91;;;-2.34;90.74
2178;BME280;1095;50.992;6.798;2023-02-28T05:01:21;102168.72;;;-2.41;90.28
2178;BME280;1095;50.992;6.798;2023-02-28T05:03:48;102169.41;;;-2.36;90.56
2178;BME280;1095;50.992;6.798;2023-02-28T05:06:15;102171.22;;;-2.38;90.48
2178;BME280;1095;50.992;6.798;2023-02-28T05:08:43;102175.38;;;-2.35;90.50
2178;BME280;1095;50.992;6.798;2023-02-28T05:11:16;102175.63;;;-2.44;90.15
2178;BME280;1095;50.992;6.798;2023-02-28T05:13:43;102178.94;;;-2.39;89.74
2178;BME280;1095;50.992;6.798;2023-02-28T05:16:10;102179.00;;;-2.42;89.63
2178;BME280;1095;50.992;6.798;2023-02-28T05:18:36;102173.97;;;-2.47;89.53
2178;BME280;1095;50.992;6.798;2023-02-28T05:21:03;102170.72;;;-2.53;89.52
2178;BME280;1095;50.992;6.798;2023-02-28T05:23:32;102171.47;;;-2.50;89.65
2178;BME280;1095;50.992;6.798;2023-02-28T05:26:01;102176.72;;;-2.54;89.58
2178;BME280;1095;50.992;6.798;2023-02-28T05:28:33;102167.91;;;-2.43;89.37
2178;BME280;1095;50.992;6.798;2023-02-28T05:31:00;102170.56;;;-2.47;89.45
2178;BME280;1095;50.992;6.798;2023-02-28T05:33:30;102165.50;;;-2.50;89.47
2178;BME280;1095;50.992;6.798;2023-02-28T05:35:59;102165.63;;;-2.55;89.64
2178;BME280;1095;50.992;6.798;2023-02-28T05:38:27;102171.78;;;-2.63;89.21
2178;BME280;1095;50.992;6.798;2023-02-28T05:41:30;102161.00;;;-2.78;89.67
2178;BME280;1095;50.992;6.798;2023-02-28T05:50:58;102176.75;;;-2.94;90.00
2178;BME280;1095;50.992;6.798;2023-02-28T05:53:28;102189.63;;;-2.97;89.81
2178;BME280;1095;50.992;6.798;2023-02-28T05:55:55;102188.09;;;-3.08;90.62
2178;BME280;1095;50.992;6.798;2023-02-28T05:58:22;102187.94;;;-2.98;90.81
2178;BME280;1095;50.992;6.798;2023-02-28T06:00:50;102184.06;;;-2.78;90.10
2178;BME280;1095;50.992;6.798;2023-02-28T06:03:18;102176.06;;;-2.64;89.57
2178;BME280;1095;50.992;6.798;2023-02-28T06:05:45;102175.13;;;-2.60;88.89
2178;BME280;1095;50.992;6.798;2023-02-28T06:08:11;102171.69;;;-2.59;88.97
2178;BME280;1095;50.992;6.798;2023-02-28T06:10:38;102163.81;;;-2.51;88.87
2178;BME280;1095;50.992;6.798;2023-02-28T06:13:05;102171.63;;;-2.56;88.17
2178;BME280;1095;50.992;6.798;2023-02-28T06:15:32;102169.94;;;-2.57;87.79
2178;BME280;1095;50.992;6.798;2023-02-28T06:17:59;102170.69;;;-2.52;87.71
2178;BME280;1095;50.992;6.798;2023-02-28T06:20:31;102175.06;;;-2.57;87.21
2178;BME280;1095;50.992;6.798;2023-02-28T06:22:59;102175.91;;;-2.56;87.54
2178;BME280;1095;50.992;6.798;2023-02-28T06:25:26;102181.94;;;-2.59;87.42
2178;BME280;1095;50.992;6.798;2023-02-28T06:27:56;102181.72;;;-2.50;86.64
2178;BME280;1095;50.992;6.798;2023-02-28T06:30:26;102180.72;;;-2.43;86.40
2178;BME280;1095;50.992;6.798;2023-02-28T06:32:56;102193.22;;;-2.30;86.12
2178;BME280;1095;50.992;6.798;2023-02-28T06:35:22;102191.34;;;-2.22;85.23
2178;BME280;1095;50.992;6.798;2023-02-28T06:37:50;102188.03;;;-2.27;84.78
2178;BME280;1095;50.992;6.798;2023-02-28T06:40:17;102190.41;;;-2.20;84.39
2178;BME280;1095;50.992;6.798;2023-02-28T06:42:44;102181.59;;;-2.08;83.53
2178;BME280;1095;50.992;6.798;2023-02-28T06:45:11;102187.69;;;-2.12;82.94
2178;BME280;1095;50.992;6.798;2023-02-28T06:47:39;102181.78;;;-2.16;82.38
2178;BME280;1095;50.992;6.798;2023-02-28T06:50:07;102193.22;;;-1.93;82.14
2178;BME280;1095;50.992;6.798;2023-02-28T06:52:34;102199.72;;;-1.82;81.25
2178;BME280;1095;50.992;6.798;2023-02-28T06:55:05;102187.44;;;-1.38;80.31
2178;BME280;1095;50.992;6.798;2023-02-28T06:57:33;102184.13;;;-0.81;79.42
2178;BME280;1095;50.992;6.798;2023-02-28T07:00:01;102176.63;;;-0.33;77.30
2178;BME280;1095;50.992;6.798;2023-02-28T07:02:29;102180.25;;;0.39;75.61
2178;BME280;1095;50.992;6.798;2023-02-28T07:04:57;102167.09;;;0.70;73.77
2178;BME280;1095;50.992;6.798;2023-02-28T07:07:23;102161.19;;;0.91;72.65
2178;BME280;1095;50.992;6.798;2023-02-28T07:09:50;102164.44;;;0.95;71.55
2178;BME280;1095;50.992;6.798;2023-02-28T07:12:18;102168.91;;;1.37;71.12
2178;BME280;1095;50.992;6.798;2023-02-28T07:14:44;102169.13;;;1.30;69.91
2178;BME280;1095;50.992;6.798;2023-02-28T07:17:11;102167.28;;;1.34;69.41
2178;BME280;1095;50.992;6.798;2023-02-28T07:19:38;102167.72;;;1.87;68.54
2178;BME280;1095;50.992;6.798;2023-02-28T07:22:05;102155.28;;;2.56;67.13
2178;BME280;1095;50.992;6.798;2023-02-28T07:24:32;102169.56;;;2.45;66.38
2178;BME280;1095;50.992;6.798;2023-02-28T07:26:59;102165.72;;;1.94;66.23
2178;BME280;1095;50.992;6.798;2023-02-28T07:29:27;102165.53;;;1.56;65.99
2178;BME280;1095;50.992;6.798;2023-02-28T07:31:54;102170.63;;;2.00;65.81
2178;BME280;1095;50.992;6.798;2023-02-28T07:34:23;102169.81;;;2.20;65.08
2178;BME280;1095;50.992;6.798;2023-02-28T07:36:52;102167.50;;;2.53;64.22
2178;BME280;1095;50.992;6.798;2023-02-28T07:39:20;102158.41;;;2.44;63.89
2178;BME280;1095;50.992;6.798;2023-02-28T07:41:46;102163.28;;;2.31;63.15
2178;BME280;1095;50.992;6.798;2023-02-28T07:44:13;102165.38;;;2.42;63.22
2178;BME280;1095;50.992;6.798;2023-02-28T07:46:41;102165.88;;;2.50;62.21
2178;BME280;1095;50.992;6.798;2023-02-28T07:49:08;102159.31;;;2.82;61.50
2178;BME280;1095;50.992;6.798;2023-02-28T07:51:34;102157.28;;;2.31;61.60
2178;BME280;1095;50.992;6.798;2023-02-28T07:54:01;102158.34;;;2.46;61.59
2178;BME280;1095;50.992;6.798;2023-02-28T07:56:28;102161.34;;;2.76;61.43
2178;BME280;1095;50.992;6.798;2023-02-28T07:58:55;102172.91;;;2.28;61.34
2178;BME280;1095;50.992;6.798;2023-02-28T08:01:21;102167.66;;;2.29;60.89
2178;BME280;1095;50.992;6.798;2023-02-28T08:03:49;102149.50;;;3.26;59.82
2178;BME280;1095;50.992;6.798;2023-02-28T08:06:19;102153.72;;;2.73;59.80
2178;BME280;1095;50.992;6.798;2023-02-28T08:08:46;102162.31;;;2.34;59.16
2178;BME280;1095;50.992;6.798;2023-02-28T08:11:14;102168.94;;;2.79;59.55
2178;BME280;1095;50.992;6.798;2023-02-28T08:13:41;102162.50;;;2.87;59.08
2178;BME280;1095;50.992;6.798;2023-02-28T08:16:09;102157.00;;;2.95;58.81
2178;BME280;1095;50.992;6.798;2023-02-28T08:18:36;102160.22;;;3.00;58.05
2178;BME280;1095;50.992;6.798;2023-02-28T08:21:07;102152.25;;;3.23;57.48
2178;BME280;1095;50.992;6.798;2023-02-28T08:23:34;102158.53;;;2.80;57.35
2178;BME280;1095;50.992;6.798;2023-02-28T08:26:00;102167.47;;;2.92;56.26
2178;BME280;1095;50.992;6.798;2023-02-28T08:28:27;102152.38;;;3.20;56.29
2178;BME280;1095;50.992;6.798;2023-02-28T08:30:54;102155.88;;;3.00;55.97
2178;BME280;1095;50.992;6.798;2023-02-28T08:33:20;102159.78;;;2.90;56.43
2178;BME280;1095;50.992;6.798;2023-02-28T08:35:48;102159.53;;;3.51;55.78
2178;BME280;1095;50.992;6.798;2023-02-28T08:38:16;102160.56;;;3.30;54.89
2178;BME280;1095;50.992;6.798;2023-02-28T08:40:42;102166.44;;;2.96;55.40
2178;BME280;1095;50.992;6.798;2023-02-28T08:43:09;102165.88;;;3.27;55.13
2178;BME280;1095;50.992;6.798;2023-02-28T08:45:35;102157.59;;;3.74;54.40
2178;BME280;1095;50.992;6.798;2023-02-28T08:48:03;102157.47;;;3.22;54.35
2178;BME280;1095;50.992;6.798;2023-02-28T08:50:30;102160.69;;;3.63;53.89
2178;BME280;1095;50.992;6.798;2023-02-28T08:52:56;102161.84;;;3.39;53.36
2178;BME280;1095;50.992;6.798;2023-02-28T08:55:25;102147.28;;;3.55;52.19
2178;BME280;1095;50.992;6.798;2023-02-28T08:57:51;102168.31;;;2.92;52.27
2178;BME280;1095;50.992;6.798;2023-02-28T09:00:21;102174.47;;;3.09;52.05
2178;BME280;1095;50.992;6.798;2023-02-28T09:02:48;102176.28;;;3.25;51.45
2178;BME280;1095;50.992;6.798;2023-02-28T09:05:14;102180.41;;;3.11;51.25
2178;BME280;1095;50.992;6.798;2023-02-28T09:07:41;102187.59;;;3.04;51.46
2178;BME280;1095;50.992;6.798;2023-02-28T09:10:09;102176.84;;;2.94;51.44
2178;BME280;1095;50.992;6.798;2023-02-28T09:12:37;102182.16;;;2.91;52.04
2178;BME280;1095;50.992;6.798;2023-02-28T09:15:05;102181.19;;;3.13;51.33
2178;BME280;1095;50.992;6.798;2023-02-28T09:17:32;102179.63;;;2.90;51.34
2178;BME280;1095;50.992;6.798;2023-02-28T09:19:58;102166.50;;;2.94;51.74
2178;BME280;1095;50.992;6.798;2023-02-28T09:22:25;102181.03;;;2.78;52.12
2178;BME280;1095;50.992;6.798;2023-02-28T09:24:51;102182.59;;;2.82;52.36
2178;BME280;1095;50.992;6.798;2023-02-28T09:27:18;102168.25;;;2.75;52.53
2178;BME280;1095;50.992;6.798;2023-02-28T09:29:46;102171.88;;;2.90;52.26
2178;BME280;1095;50.992;6.798;2023-02-28T09:32:12;102170.50;;;2.83;51.92
2178;BME280;1095;50.992;6.798;2023-02-28T09:34:39;102168.25;;;2.75;52.55
2178;BME280;1095;50.992;6.798;2023-02-28T09:37:06;102176.00;;;2.75;51.89
2178;BME280;1095;50.992;6.798;2023-02-28T09:39:35;102168.50;;;2.69;51.46
2178;BME280;1095;50.992;6.798;2023-02-28T09:42:03;102164.38;;;2.65;51.70
2178;BME280;1095;50.992;6.798;2023-02-28T09:44:33;102168.66;;;2.85;51.58
2178;BME280;1095;50.992;6.798;2023-02-28T09:47:13;102168.19;;;2.77;52.32
2178;BME280;1095;50.992;6.798;2023-02-28T09:49:46;102171.38;;;2.63;52.26
2178;BME280;1095;50.992;6.798;2023-02-28T09:52:17;102185.78;;;2.87;52.53
2178;BME280;1095;50.992;6.798;2023-02-28T09:54:44;102186.34;;;2.94;52.54
2178;BME280;1095;50.992;6.798;2023-02-28T09:57:19;102146.09;;;2.70;52.58
2178;BME280;1095;50.992;6.798;2023-02-28T09:59:54;102178.38;;;2.80;53.10
2178;BME280;1095;50.992;6.798;2023-02-28T10:02:46;102189.75;;;2.94;53.23
2178;BME280;1095;50.992;6.798;2023-02-28T10:05:16;102180.97;;;2.80;52.42
2178;BME280;1095;50.992;6.798;2023-02-28T10:07:57;102177.41;;;2.82;52.13
2178;BME280;1095;50.992;6.798;2023-02-28T10:10:33;102175.50;;;2.86;51.79
2178;BME280;1095;50.992;6.798;2023-02-28T10:13:06;102159.22;;;3.03;52.06
2178;BME280;1095;50.992;6.798;2023-02-28T10:15:34;102163.84;;;3.15;52.12
2178;BME280;1095;50.992;6.798;2023-02-28T10:18:05;102170.28;;;3.06;51.24
2178;BME280;1095;50.992;6.798;2023-02-28T10:20:39;102181.81;;;3.18;50.87
2178;BME280;1095;50.992;6.798;2023-02-28T10:23:12;102169.84;;;2.96;50.80
2178;BME280;1095;50.992;6.798;2023-02-28T10:25:40;102160.34;;;2.97;51.05
2178;BME280;1095;50.992;6.798;2023-02-28T10:28:11;102165.38;;;3.19;51.47
2178;BME280;1095;50.992;6.798;2023-02-28T10:30:41;102174.47;;;3.09;51.86
2178;BME280;1095;50.992;6.798;2023-02-28T10:33:17;102167.06;;;3.20;51.03
2178;BME280;1095;50.992;6.798;2023-02-28T10:35:45;102155.59;;;3.25;51.20
2178;BME280;1095;50.992;6.798;2023-02-28T10:38:16;102165.28;;;3.39;50.42
2178;BME280;1095;50.992;6.798;2023-02-28T10:40:43;102155.81;;;3.38;51.05
2178;BME280;1095;50.992;6.798;2023-02-28T10:43:19;102159.41;;;3.36;51.49
2178;BME280;1095;50.992;6.798;2023-02-28T10:45:59;102154.66;;;3.62;51.32
2178;BME280;1095;50.992;6.798;2023-02-28T10:48:33;102163.88;;;3.85;51.31
2178;BME280;1095;50.992;6.798;2023-02-28T10:51:01;102153.84;;;3.62;50.71
2178;BME280;1095;50.992;6.798;2023-02-28T10:53:33;102147.97;;;3.58;50.53
2178;BME280;1095;50.992;6.798;2023-02-28T10:56:03;102155.38;;;3.66;50.34
2178;BME280;1095;50.992;6.798;2023-02-28T10:58:31;102146.28;;;3.57;50.49
2178;BME280;1095;50.992;6.798;2023-02-28T11:01:01;102138.75;;;3.53;50.71
2178;BME280;1095;50.992;6.798;2023-02-28T11:03:32;102153.63;;;3.66;50.68
2178;BME280;1095;50.992;6.798;2023-02-28T11:06:05;102140.59;;;3.68;50.61
2178;BME280;1095;50.992;6.798;2023-02-28T11:08:33;102140.16;;;3.77;51.08
2178;BME280;1095;50.992;6.798;2023-02-28T11:11:04;102138.09;;;3.66;51.00
2178;BME280;1095;50.992;6.798;2023-02-28T11:13:32;102143.09;;;3.70;50.54
2178;BME280;1095;50.992;6.798;2023-02-28T11:16:03;102138.38;;;3.95;51.07
2178;BME280;1095;50.992;6.798;2023-02-28T11:18:38;102137.69;;;4.09;50.92
2178;BME280;1095;50.992;6.798;2023-02-28T11:21:08;102131.69;;;4.08;50.50
2178;BME280;1095;50.992;6.798;2023-02-28T11:23:36;102130.16;;;4.04;51.28
2178;BME280;1095;50.992;6.798;2023-02-28T11:26:07;102133.34;;;4.09;50.71
2178;BME280;1095;50.992;6.798;2023-02-28T11:28:38;102128.31;;;3.89;50.87
2178;BME280;1095;50.992;6.798;2023-02-28T11:31:15;102129.91;;;3.91;50.82
2178;BME280;1095;50.992;6.798;2023-02-28T11:33:47;102121.47;;;3.88;50.62
2178;BME280;1095;50.992;6.798;2023-02-28T11:36:19;102137.31;;;3.82;51.28
2178;BME280;1095;50.992;6.798;2023-02-28T11:38:47;102129.53;;;3.99;51.34
2178;BME280;1095;50.992;6.798;2023-02-28T11:41:26;102129.53;;;4.16;52.60
2178;BME280;1095;50.992;6.798;2023-02-28T11:44:05;102130.06;;;4.23;51.97
2178;BME280;1095;50.992;6.798;2023-02-28T11:46:39;102140.66;;;4.18;51.76
2178;BME280;1095;50.992;6.798;2023-02-28T11:49:18;102150.66;;;4.42;52.11
2178;BME280;1095;50.992;6.798;2023-02-28T11:51:50;102140.28;;;4.59;51.77
2178;BME280;1095;50.992;6.798;2023-02-28T11:54:41;102138.75;;;4.55;51.01
2178;BME280;1095;50.992;6.798;2023-02-28T11:57:26;102145.22;;;4.63;51.26
2178;BME280;1095;50.992;6.798;2023-02-28T12:00:01;102151.88;;;4.52;51.44
2178;BME280;1095;50.992;6.798;2023-02-28T12:02:30;102133.97;;;4.47;51.69
2178;BME280;1095;50.992;6.798;2023-02-28T12:05:12;102141.69;;;4.64;51.11
2178;BME280;1095;50.992;6.798;2023-02-28T12:07:49;102145.81;;;4.36;51.02
2178;BME280;1095;50.992;6.798;2023-02-28T12:10:22;102134.03;;;4.46;51.86
2178;BME280;1095;50.992;6.798;2023-02-28T12:13:01;102122.91;;;4.44;51.69
2178;BME280;1095;50.992;6.798;2023-02-28T12:16:00;102139.28;;;4.11;51.93
2178;BME280;1095;50.992;6.798;2023-02-28T12:18:42;102144.31;;;3.97;52.32
2178;BME280;1095;50.992;6.798;2023-02-28T12:21:25;102149.16;;;4.38;52.72
2178;BME280;1095;50.992;6.798;2023-02-28T12:24:07;102132.84;;;4.69;52.30
2178;BME280;1095;50.992;6.798;2023-02-28T12:26:39;102103.41;;;4.70;52.02
2178;BME280;1095;50.992;6.798;2023-02-28T12:29:14;102114.19;;;4.78;51.79
2178;BME280;1095;50.992;6.798;2023-02-28T12:31:46;102102.13;;;4.61;51.44
2178;BME280;1095;50.992;6.798;2023-02-28T12:34:19;102089.81;;;4.49;50.99
2178;BME280;1095;50.992;6.798;2023-02-28T12:36:52;102088.22;;;4.46;50.95
2178;BME280;1095;50.992;6.798;2023-02-28T12:39:37;102078.81;;;4.61;51.21
2178;BME280;1095;50.992;6.798;2023-02-28T12:42:13;102081.06;;;4.67;50.91
2178;BME280;1095;50.992;6.798;2023-02-28T12:44:54;102073.69;;;4.59;50.95
2178;BME280;1095;50.992;6.798;2023-02-28T12:47:25;102072.44;;;4.82;50.11
2178;BME280;1095;50.992;6.798;2023-02-28T12:49:58;102073.13;;;4.70;50.75
2178;BME280;1095;50.992;6.798;2023-02-28T12:52:51;102061.25;;;4.66;50.61
2178;BME280;1095;50.992;6.798;2023-02-28T12:55:41;102077.63;;;5.14;50.50
2178;BME280;1095;50.992;6.798;2023-02-28T12:58:14;102056.22;;;4.79;50.33
2178;BME280;1095;50.992;6.798;2023-02-28T13:01:07;102090.25;;;5.04;50.22
2178;BME280;1095;50.992;6.798;2023-02-28T13:03:51;102078.88;;;5.07;50.17
2178;BME280;1095;50.992;6.798;2023-02-28T13:06:52;102079.22;;;5.16;49.20
2178;BME280;1095;50.992;6.798;2023-02-28T13:09:25;102080.69;;;5.20;49.86
2178;BME280;1095;50.992;6.798;2023-02-28T13:11:55;102067.75;;;5.05;50.03
2178;BME280;1095;50.992;6.798;2023-02-28T13:14:26;102061.97;;;4.99;49.55
2178;BME280;1095;50.992;6.798;2023-02-28T13:17:02;102067.50;;;4.93;49.63
2178;BME280;1095;50.992;6.798;2023-02-28T13:19:31;102069.28;;;5.23;50.21
2178;BME280;1095;50.992;6.798;2023-02-28T13:21:59;102072.91;;;5.20;50.91
2178;BME280;1095;50.992;6.798;2023-02-28T13:24:44;102060.88;;;5.04;51.05
2178;BME280;1095;50.992;6.798;2023-02-28T13:27:22;102070.59;;;5.16;49.79
2178;BME280;1095;50.992;6.798;2023-02-28T13:29:51;102057.72;;;4.98;50.02
2178;BME280;1095;50.992;6.798;2023-02-28T13:32:34;102062.91;;;4.83;50.23
2178;BME280;1095;50.992;6.798;2023-02-28T13:35:37;102064.50;;;5.01;49.74
2178;BME280;1095;50.992;6.798;2023-02-28T13:38:32;102039.97;;;5.07;49.99
2178;BME280;1095;50.992;6.798;2023-02-28T13:44:08;102061.06;;;5.00;49.61
2178;BME280;1095;50.992;6.798;2023-02-28T13:46:37;102057.38;;;5.05;50.02
2178;BME280;1095;50.992;6.798;2023-02-28T13:49:26;102055.81;;;5.32;50.01
2178;BME280;1095;50.992;6.798;2023-02-28T13:51:55;102049.78;;;5.31;49.99
2178;BME280;1095;50.992;6.798;2023-02-28T13:54:39;102055.72;;;5.33;49.98
2178;BME280;1095;50.992;6.798;2023-02-28T13:57:22;102042.25;;;5.27;49.52
2178;BME280;1095;50.992;6.798;2023-02-28T14:00:06;102037.63;;;5.02;49.51
2178;BME280;1095;50.992;6.798;2023-02-28T14:03:04;102048.66;;;5.06;50.08
2178;BME280;1095;50.992;6.798;2023-02-28T14:05:34;102032.59;;;5.45;50.01
2178;BME280;1095;50.992;6.798;2023-02-28T14:08:05;102031.63;;;5.61;49.98
2178;BME280;1095;50.992;6.798;2023-02-28T14:10:39;102028.78;;;5.50;49.26
2178;BME280;1095;50.992;6.798;2023-02-28T14:13:37;102029.94;;;5.30;49.37
2178;BME280;1095;50.992;6.798;2023-02-28T14:16:12;102028.69;;;5.22;49.49
2178;BME280;1095;50.992;6.798;2023-02-28T14:18:41;102030.91;;;5.14;49.12
2178;BME280;1095;50.992;6.798;2023-02-28T14:21:13;102018.94;;;5.41;49.11
2178;BME280;1095;50.992;6.798;2023-02-28T14:24:23;102009.31;;;5.13;49.24
2178;BME280;1095;50.992;6.798;2023-02-28T14:27:01;102022.81;;;5.34;49.08
2178;BME280;1095;50.992;6.798;2023-02-28T14:29:51;102011.31;;;5.38;49.29
2178;BME280;1095;50.992;6.798;2023-02-28T14:32:27;102023.97;;;5.44;49.70
2178;BME280;1095;50.992;6.798;2023-02-28T14:35:04;102027.09;;;5.35;49.55
2178;BME280;1095;50.992;6.798;2023-02-28T14:37:40;102019.13;;;5.38;49.83
2178;BME280;1095;50.992;6.798;2023-02-28T14:40:12;102026.91;;;5.38;49.75